createdAt,value
2022-12-15T00:01:04.727Z,98365.47
2022-12-15T00:02:55.678Z,98355.78
2022-12-15T00:04:46.471Z,98350.63
2022-12-15T00:06:36.928Z,98349.69
2022-12-15T00:08:28.920Z,98342.63
2022-12-15T00:10:20.783Z,98343.44
2022-12-15T00:12:11.256Z,98330.41
2022-12-15T00:14:02.727Z,98338.19
2022-12-15T00:15:53.371Z,98338.19
2022-12-15T00:17:44.389Z,98335.63
2022-12-15T00:19:35.117Z,98340.78
2022-12-15T00:21:25.816Z,98348.56
2022-12-15T00:23:16.336Z,98358.16
2022-12-15T00:25:06.658Z,98352.13
2022-12-15T00:26:58.586Z,98366.16
2022-12-15T00:28:49.519Z,98381.91
2022-12-15T00:30:39.945Z,98388.94
2022-12-15T00:32:30.614Z,98415.00
2022-12-15T00:34:21.128Z,98423.66
2022-12-15T00:36:12.526Z,98421.94
2022-12-15T00:38:03.034Z,98414.94
2022-12-15T00:39:36.426Z,98413.19
2022-12-15T00:41:08.951Z,98426.25
2022-12-15T00:42:43.482Z,98427.06
2022-12-15T00:44:20.572Z,98444.41
2022-12-15T00:46:11.382Z,98433.09
2022-12-15T00:47:44.558Z,98425.22
2022-12-15T00:49:31.512Z,98421.91
2022-12-15T00:51:04.927Z,98418.50
2022-12-15T00:52:55.789Z,98417.56
2022-12-15T00:54:46.328Z,98412.44
2022-12-15T00:56:37.103Z,98428.00
2022-12-15T00:58:29.049Z,98440.13
2022-12-15T01:00:19.575Z,98460.22
2022-12-15T01:02:10.356Z,98467.25
2022-12-15T01:04:01.373Z,98468.97
2022-12-15T01:05:52.599Z,98447.94
2022-12-15T01:07:43.310Z,98455.69
2022-12-15T01:09:33.992Z,98443.47
2022-12-15T01:11:24.511Z,98433.97
2022-12-15T01:13:15.343Z,98437.53
2022-12-15T01:15:07.266Z,98449.66
2022-12-15T01:16:57.554Z,98443.69
2022-12-15T01:18:49.623Z,98459.19
2022-12-15T01:20:23.009Z,98465.31
2022-12-15T01:21:56.349Z,98474.94
2022-12-15T01:23:30.462Z,98461.88
2022-12-15T01:25:04.043Z,98462.75
2022-12-15T01:26:37.206Z,98460.22
2022-12-15T01:28:09.387Z,98468.97
2022-12-15T01:29:42.566Z,98455.16
2022-12-15T01:31:17.187Z,98457.84
2022-12-15T01:32:50.856Z,98446.59
2022-12-15T01:34:23.070Z,98436.16
2022-12-15T01:36:00.787Z,98408.19
2022-12-15T01:37:34.385Z,98389.00
2022-12-15T01:39:07.553Z,98390.66
2022-12-15T01:40:45.577Z,98381.09
2022-12-15T01:42:17.741Z,98368.97
2022-12-15T01:43:50.961Z,98360.38
2022-12-15T01:45:46.994Z,98364.81
2022-12-15T01:47:26.246Z,98376.91
2022-12-15T01:49:13.176Z,98382.06
2022-12-15T01:50:57.811Z,98378.56
2022-12-15T01:52:31.000Z,98364.56
2022-12-15T01:54:08.054Z,98372.28
2022-12-15T01:55:42.897Z,98386.22
2022-12-15T01:57:20.217Z,98383.66
2022-12-15T01:58:57.796Z,98382.75
2022-12-15T02:00:30.512Z,98383.66
2022-12-15T02:02:04.963Z,98374.97
2022-12-15T02:03:40.982Z,98354.06
2022-12-15T02:05:13.577Z,98360.22
2022-12-15T02:06:46.704Z,98341.22
2022-12-15T02:08:19.083Z,98354.16
2022-12-15T02:09:56.308Z,98353.25
2022-12-15T02:12:01.796Z,98355.78
2022-12-15T02:13:41.354Z,98369.63
2022-12-15T02:15:21.859Z,98376.63
2022-12-15T02:17:07.804Z,98356.00
2022-12-15T02:18:54.033Z,98360.16
2022-12-15T02:20:50.206Z,98353.06
2022-12-15T02:22:35.625Z,98360.88
2022-12-15T02:24:41.889Z,98346.84
2022-12-15T02:26:46.334Z,98321.59
2022-12-15T02:28:32.974Z,98317.28
2022-12-15T02:30:37.612Z,98325.94
2022-12-15T02:32:11.692Z,98322.66
2022-12-15T02:33:51.505Z,98321.09
2022-12-15T02:35:30.778Z,98340.09
2022-12-15T02:37:09.687Z,98333.19
2022-12-15T02:38:42.934Z,98327.88
2022-12-15T02:40:15.100Z,98333.19
2022-12-15T02:41:51.652Z,98351.34
2022-12-15T02:43:24.873Z,98347.00
2022-12-15T02:45:02.565Z,98345.25
2022-12-15T02:46:48.578Z,98345.19
2022-12-15T02:48:31.278Z,98349.66
2022-12-15T02:50:30.229Z,98339.06
2022-12-15T02:52:15.477Z,98357.38
2022-12-15T02:54:12.321Z,98357.47
2022-12-15T02:55:53.049Z,98360.88
2022-12-15T02:57:32.547Z,98346.84
2022-12-15T02:59:12.054Z,98332.97
2022-12-15T03:00:59.312Z,98339.00
2022-12-15T03:02:38.136Z,98346.84
2022-12-15T03:04:13.174Z,98350.28
2022-12-15T03:05:45.420Z,98358.88
2022-12-15T03:07:18.673Z,98361.41
2022-12-15T03:08:51.857Z,98363.97
2022-12-15T03:10:26.768Z,98365.66
2022-12-15T03:12:00.376Z,98376.19
2022-12-15T03:13:33.935Z,98369.22
2022-12-15T03:15:07.577Z,98385.59
2022-12-15T03:16:40.782Z,98380.34
2022-12-15T03:18:15.789Z,98381.09
2022-12-15T03:19:49.723Z,98391.56
2022-12-15T03:21:23.294Z,98398.53
2022-12-15T03:22:55.466Z,98403.66
2022-12-15T03:24:28.717Z,98398.38
2022-12-15T03:26:01.957Z,98402.78
2022-12-15T03:27:37.909Z,98394.97
2022-12-15T03:29:11.167Z,98395.00
2022-12-15T03:30:44.349Z,98403.81
2022-12-15T03:32:18.117Z,98401.22
2022-12-15T03:33:52.767Z,98409.00
2022-12-15T03:35:24.900Z,98407.09
2022-12-15T03:36:58.442Z,98396.66
2022-12-15T03:38:31.717Z,98396.69
2022-12-15T03:40:05.231Z,98405.63
2022-12-15T03:41:38.441Z,98414.34
2022-12-15T03:43:12.769Z,98402.38
2022-12-15T03:44:45.965Z,98416.34
2022-12-15T03:46:19.255Z,98406.88
2022-12-15T03:47:53.073Z,98406.91
2022-12-15T03:49:27.651Z,98408.81
2022-12-15T03:51:00.835Z,98415.72
2022-12-15T03:52:33.945Z,98436.66
2022-12-15T03:54:07.492Z,98432.25
2022-12-15T03:55:40.612Z,98421.72
2022-12-15T03:57:13.787Z,98426.94
2022-12-15T03:58:47.037Z,98439.13
2022-12-15T04:00:21.697Z,98446.13
2022-12-15T04:01:56.548Z,98442.78
2022-12-15T04:03:30.212Z,98460.03
2022-12-15T04:05:05.266Z,98455.69
2022-12-15T04:06:37.446Z,98465.31
2022-12-15T04:08:10.638Z,98467.94
2022-12-15T04:09:42.841Z,98467.88
2022-12-15T04:11:16.020Z,98461.81
2022-12-15T04:12:49.266Z,98470.63
2022-12-15T04:14:21.400Z,98459.22
2022-12-15T04:15:54.773Z,98474.94
2022-12-15T04:17:26.928Z,98476.78
2022-12-15T04:19:17.226Z,98474.13
2022-12-15T04:20:51.748Z,98482.03
2022-12-15T04:22:24.739Z,98505.59
2022-12-15T04:24:15.299Z,98493.50
2022-12-15T04:26:06.537Z,98507.50
2022-12-15T04:28:01.488Z,98521.44
2022-12-15T04:29:52.246Z,98515.47
2022-12-15T04:31:45.716Z,98521.66
2022-12-15T04:33:36.587Z,98525.16
2022-12-15T04:35:27.961Z,98509.63
2022-12-15T04:37:20.468Z,98529.59
2022-12-15T04:39:11.048Z,98521.59
2022-12-15T04:41:01.826Z,98529.28
2022-12-15T04:42:53.990Z,98532.09
2022-12-15T04:44:44.560Z,98538.00
2022-12-15T04:46:40.580Z,98543.16
2022-12-15T04:48:31.815Z,98544.03
2022-12-15T04:50:23.046Z,98549.22
2022-12-15T04:52:13.874Z,98572.84
2022-12-15T04:54:05.766Z,98585.84
2022-12-15T04:55:56.629Z,98610.16
2022-12-15T04:57:47.422Z,98617.03
2022-12-15T04:59:38.207Z,98617.00
2022-12-15T05:01:28.864Z,98627.44
2022-12-15T05:03:23.363Z,98630.00
2022-12-15T05:05:13.851Z,98627.44
2022-12-15T05:07:04.281Z,98629.28
2022-12-15T05:08:54.890Z,98634.56
2022-12-15T05:10:47.020Z,98626.75
2022-12-15T05:12:37.455Z,98636.44
2022-12-15T05:14:28.156Z,98642.63
2022-12-15T05:16:18.990Z,98641.66
2022-12-15T05:18:09.828Z,98645.06
2022-12-15T05:20:00.215Z,98661.56
2022-12-15T05:21:51.015Z,98671.25
2022-12-15T05:23:41.824Z,98672.16
2022-12-15T05:25:32.461Z,98674.94
2022-12-15T05:27:24.706Z,98682.75
2022-12-15T05:29:15.664Z,98686.31
2022-12-15T05:31:06.302Z,98694.25
2022-12-15T05:32:39.448Z,98690.75
2022-12-15T05:34:12.570Z,98683.81
2022-12-15T05:35:50.104Z,98675.06
2022-12-15T05:37:23.246Z,98674.16
2022-12-15T05:38:55.451Z,98679.38
2022-12-15T05:40:28.579Z,98685.53
2022-12-15T05:42:01.747Z,98693.34
2022-12-15T05:43:35.585Z,98685.38
2022-12-15T05:45:10.340Z,98685.25
2022-12-15T05:46:43.575Z,98685.19
2022-12-15T05:48:17.812Z,98673.97
2022-12-15T05:49:51.928Z,98690.28
2022-12-15T05:51:24.441Z,98693.72
2022-12-15T05:52:59.618Z,98689.38
2022-12-15T05:54:33.083Z,98697.16
2022-12-15T05:56:08.358Z,98701.50
2022-12-15T05:57:41.527Z,98698.94
2022-12-15T05:59:17.318Z,98698.09
2022-12-15T06:00:50.440Z,98697.16
2022-12-15T06:02:23.681Z,98709.38
2022-12-15T06:03:57.230Z,98708.44
2022-12-15T06:05:30.467Z,98706.75
2022-12-15T06:07:05.387Z,98717.09
2022-12-15T06:08:41.415Z,98720.63
2022-12-15T06:10:14.779Z,98731.84
2022-12-15T06:11:48.761Z,98731.84
2022-12-15T06:13:23.089Z,98728.28
2022-12-15T06:14:57.863Z,98740.41
